Time;durP1;ratioP1;P1;durP2;ratioP2;P2;SDS_P1;SDS_P2;PMS_P1;PMS_P2;Temp;Humidity;BMP_temperature;BMP_pressure;BME280_temperature;BME280_humidity;BME280_pressure;Samples;Min_cycle;Max_cycle;Signal;HPM_P1;HPM_P2
2024/03/28 00:01:41;;;;;;;;;;;12.20;83.10;;;;;;5043829;27;88660;-47
2024/03/28 00:04:06;;;;;;;;;;;12.20;83.10;;;;;;5044786;27;87892;-48
2024/03/28 00:06:32;;;;;;;;;;;12.20;83.10;;;;;;5045139;28;87117;-47
2024/03/28 00:08:57;;;;;;;;;;;12.20;83.00;;;;;;5044789;27;86670;-48
2024/03/28 00:11:23;;;;;;;;;;;12.20;83.00;;;;;;5042591;28;86965;-48
2024/03/28 00:13:48;;;;;;;;;;;12.20;83.10;;;;;;5042850;28;87523;-47
2024/03/28 00:16:14;;;;;;;;;;;12.20;83.10;;;;;;5043484;28;89331;-46
2024/03/28 00:18:39;;;;;;;;;;;12.20;83.00;;;;;;5042404;28;87311;-46
2024/03/28 00:21:05;;;;;;;;;;;12.20;83.00;;;;;;5045772;27;88093;-49
2024/03/28 00:23:31;;;;;;;;;;;12.20;82.90;;;;;;5042666;28;86894;-48
2024/03/28 00:25:58;;;;;;;;;;;12.20;82.90;;;;;;5043786;27;87067;-48
2024/03/28 00:28:24;;;;;;;;;;;12.20;82.90;;;;;;5042667;28;87490;-47
2024/03/28 00:30:50;;;;;;;;;;;12.20;82.90;;;;;;5041892;28;86910;-47
2024/03/28 00:33:15;;;;;;;;;;;12.20;82.90;;;;;;5041650;28;86718;-47
2024/03/28 00:35:45;;;;;;;;;;;12.20;82.90;;;;;;5044431;28;87527;-47
2024/03/28 00:38:11;;;;;;;;;;;12.20;82.90;;;;;;5042177;27;87142;-48
2024/03/28 00:40:45;;;;;;;;;;;12.20;82.90;;;;;;5040832;27;88014;-47
2024/03/28 00:43:11;;;;;;;;;;;12.20;82.90;;;;;;5042861;28;87519;-48
2024/03/28 00:45:36;;;;;;;;;;;12.20;82.90;;;;;;5043568;27;87562;-47
2024/03/28 00:48:02;;;;;;;;;;;12.20;82.90;;;;;;5042352;28;88870;-47
2024/03/28 00:50:28;;;;;;;;;;;12.20;83.00;;;;;;5040963;27;87635;-47
2024/03/28 00:52:53;;;;;;;;;;;12.20;82.90;;;;;;5044448;28;87113;-47
2024/03/28 00:55:19;;;;;;;;;;;12.20;82.90;;;;;;5043231;28;87530;-48
2024/03/28 00:57:44;;;;;;;;;;;12.20;82.90;;;;;;5044863;27;86235;-49
2024/03/28 01:00:10;;;;;;;;;;;12.20;82.80;;;;;;5041160;28;86962;-47
2024/03/28 01:02:36;;;;;;;;;;;12.20;82.80;;;;;;5043471;28;87685;-47
2024/03/28 01:05:01;;;;;;;;;;;12.20;82.80;;;;;;5043881;27;88787;-47
2024/03/28 01:07:27;;;;;;;;;;;12.10;82.80;;;;;;5041196;27;88749;-48
2024/03/28 01:09:52;;;;;;;;;;;12.20;82.80;;;;;;5042817;28;86997;-48
2024/03/28 01:12:18;;;;;;;;;;;12.20;82.80;;;;;;5044399;28;86980;-48
2024/03/28 01:14:44;;;;;;;;;;;12.10;82.80;;;;;;5040823;27;87691;-48
2024/03/28 01:17:09;;;;;;;;;;;12.10;82.80;;;;;;5045500;27;88129;-47
2024/03/28 01:19:35;;;;;;;;;;;12.20;82.80;;;;;;5045937;28;88385;-47
2024/03/28 01:22:01;;;;;;;;;;;12.10;82.80;;;;;;5046926;27;86870;-48
2024/03/28 01:24:26;;;;;;;;;;;12.10;82.80;;;;;;5050432;28;86890;-47
2024/03/28 01:26:52;;;;;;;;;;;12.20;82.80;;;;;;5047227;28;88203;-48
2024/03/28 01:29:17;;;;;;;;;;;12.10;82.80;;;;;;5045442;28;87951;-47
2024/03/28 01:31:43;;;;;;;;;;;12.10;82.80;;;;;;5047529;28;87909;-48
2024/03/28 01:34:09;;;;;;;;;;;12.10;82.80;;;;;;5044670;28;89052;-47
2024/03/28 01:36:34;;;;;;;;;;;12.10;82.80;;;;;;5046680;28;87077;-47
2024/03/28 01:39:00;;;;;;;;;;;12.10;82.80;;;;;;5047348;28;87069;-47
2024/03/28 01:41:25;;;;;;;;;;;12.10;82.80;;;;;;5046936;27;87823;-48
2024/03/28 01:43:51;;;;;;;;;;;12.10;82.80;;;;;;5046050;27;87014;-47
2024/03/28 01:46:17;;;;;;;;;;;12.10;83.00;;;;;;5047464;27;86975;-46
2024/03/28 01:48:46;;;;;;;;;;;12.10;83.00;;;;;;5045303;28;87041;-47
2024/03/28 01:51:11;;;;;;;;;;;12.10;82.90;;;;;;5046537;27;87042;-48
2024/03/28 01:53:37;;;;;;;;;;;12.10;82.90;;;;;;5045580;27;88434;-48
2024/03/28 01:56:04;;;;;;;;;;;12.10;83.00;;;;;;5045495;27;87063;-47
2024/03/28 01:58:30;;;;;;;;;;;12.10;83.00;;;;;;5046888;27;87947;-46
2024/03/28 02:00:56;;;;;;;;;;;12.10;83.00;;;;;;5043138;27;87763;-47
2024/03/28 02:03:21;;;;;;;;;;;12.20;83.00;;;;;;5045359;27;87273;-47
2024/03/28 02:05:47;;;;;;;;;;;12.10;82.90;;;;;;5045382;27;87072;-47
2024/03/28 02:08:12;;;;;;;;;;;12.20;83.00;;;;;;5048851;28;88488;-47
2024/03/28 02:10:38;;;;;;;;;;;12.10;82.90;;;;;;5046287;27;87308;-47
2024/03/28 02:13:04;;;;;;;;;;;12.10;82.90;;;;;;5045959;27;86927;-48
2024/03/28 02:15:30;;;;;;;;;;;12.10;83.00;;;;;;5044098;27;87189;-48
2024/03/28 02:17:56;;;;;;;;;;;12.10;83.00;;;;;;5043178;27;87796;-47
2024/03/28 02:20:22;;;;;;;;;;;12.10;83.00;;;;;;5046050;27;88626;-48
2024/03/28 02:22:47;;;;;;;;;;;12.10;83.00;;;;;;5046279;28;87076;-48
2024/03/28 02:25:13;;;;;;;;;;;12.10;83.00;;;;;;5043208;27;86890;-47
2024/03/28 02:27:40;;;;;;;;;;;12.10;83.00;;;;;;5044281;28;87342;-47
2024/03/28 02:30:09;;;;;;;;;;;12.10;83.00;;;;;;5046203;27;87105;-48
2024/03/28 02:32:35;;;;;;;;;;;12.10;83.00;;;;;;5044946;27;89100;-47
2024/03/28 02:35:03;;;;;;;;;;;12.10;82.90;;;;;;5045873;27;87020;-49
2024/03/28 02:37:29;;;;;;;;;;;12.10;82.90;;;;;;5045957;27;86929;-47
2024/03/28 02:39:55;;;;;;;;;;;12.10;82.90;;;;;;5043634;27;88016;-49
2024/03/28 02:42:21;;;;;;;;;;;12.10;82.90;;;;;;5045282;27;88269;-49
2024/03/28 02:44:46;;;;;;;;;;;12.10;82.90;;;;;;5045595;28;88023;-47
2024/03/28 02:47:12;;;;;;;;;;;12.10;82.90;;;;;;5045030;27;88476;-48
2024/03/28 02:49:37;;;;;;;;;;;12.10;82.90;;;;;;5045914;27;87894;-50
2024/03/28 02:52:03;;;;;;;;;;;12.10;82.90;;;;;;5048425;28;86973;-51
2024/03/28 02:54:29;;;;;;;;;;;12.10;82.90;;;;;;5046181;27;87171;-49
2024/03/28 02:57:01;;;;;;;;;;;12.10;82.90;;;;;;5045718;28;87944;-47
2024/03/28 02:59:26;;;;;;;;;;;12.10;82.90;;;;;;5042502;28;87033;-49
2024/03/28 03:01:52;;;;;;;;;;;12.10;83.00;;;;;;5041769;27;87591;-49
2024/03/28 03:04:18;;;;;;;;;;;12.10;83.00;;;;;;5045357;27;87291;-47
2024/03/28 03:06:43;;;;;;;;;;;12.10;83.00;;;;;;5044854;28;89429;-47
2024/03/28 03:09:09;;;;;;;;;;;12.10;83.00;;;;;;5045763;27;87142;-48
2024/03/28 03:11:34;;;;;;;;;;;12.10;83.00;;;;;;5045649;28;88211;-47
2024/03/28 03:14:00;;;;;;;;;;;12.10;83.00;;;;;;5045112;28;87016;-48
2024/03/28 03:16:25;;;;;;;;;;;12.10;83.00;;;;;;5042482;27;86958;-47
2024/03/28 03:18:51;;;;;;;;;;;12.10;83.00;;;;;;5043057;28;87880;-47
2024/03/28 03:21:18;;;;;;;;;;;12.10;83.10;;;;;;5045820;28;87212;-47
2024/03/28 03:23:49;;;;;;;;;;;12.10;83.10;;;;;;5044932;28;87037;-47
2024/03/28 03:26:24;;;;;;;;;;;12.10;83.00;;;;;;5043214;27;89055;-47
2024/03/28 03:34:37;;;;;;;;;;;12.10;83.10;;;;;;5046301;27;87553;-46
2024/03/28 03:37:08;;;;;;;;;;;12.00;83.00;;;;;;5041587;28;87621;-48
2024/03/28 03:39:34;;;;;;;;;;;12.00;83.10;;;;;;5043483;28;87283;-47
2024/03/28 03:41:59;;;;;;;;;;;12.00;83.10;;;;;;5043005;28;87341;-48
2024/03/28 03:44:25;;;;;;;;;;;12.00;83.10;;;;;;5043169;28;87664;-47
2024/03/28 03:46:50;;;;;;;;;;;12.00;83.00;;;;;;5044481;28;87956;-47
2024/03/28 03:49:16;;;;;;;;;;;12.00;83.00;;;;;;5046059;28;86288;-48
2024/03/28 03:51:42;;;;;;;;;;;12.00;83.00;;;;;;5044568;27;86875;-47
2024/03/28 03:54:07;;;;;;;;;;;12.00;83.00;;;;;;5045006;27;87495;-48
2024/03/28 03:56:33;;;;;;;;;;;12.10;83.10;;;;;;5047372;27;87824;-48
2024/03/28 03:58:58;;;;;;;;;;;12.10;83.10;;;;;;5044074;27;87055;-47
2024/03/28 04:01:25;;;;;;;;;;;12.00;83.00;;;;;;5042146;27;87104;-48
2024/03/28 04:03:50;;;;;;;;;;;12.00;83.00;;;;;;5041776;28;87341;-52
2024/03/28 04:06:16;;;;;;;;;;;12.00;83.00;;;;;;5044736;27;87983;-47
2024/03/28 04:08:42;;;;;;;;;;;12.00;83.00;;;;;;5039853;27;87080;-47
2024/03/28 04:11:07;;;;;;;;;;;12.00;83.00;;;;;;5041312;28;87001;-48
2024/03/28 04:13:33;;;;;;;;;;;12.00;83.00;;;;;;5044826;28;86227;-47
2024/03/28 04:15:58;;;;;;;;;;;12.00;83.00;;;;;;5044660;27;87295;-48
2024/03/28 04:18:24;;;;;;;;;;;12.00;83.00;;;;;;5044693;27;86953;-49
2024/03/28 04:20:50;;;;;;;;;;;12.00;82.90;;;;;;5041858;28;88466;-49
2024/03/28 04:23:16;;;;;;;;;;;12.00;82.90;;;;;;5042921;28;89095;-49
2024/03/28 04:25:41;;;;;;;;;;;12.00;82.90;;;;;;5041361;28;87786;-49
2024/03/28 04:28:07;;;;;;;;;;;12.00;83.00;;;;;;5044650;27;87398;-47
2024/03/28 04:30:33;;;;;;;;;;;12.00;82.90;;;;;;5042912;28;87060;-48
2024/03/28 04:32:59;;;;;;;;;;;12.00;83.10;;;;;;5043003;28;87699;-47
2024/03/28 04:35:24;;;;;;;;;;;12.00;82.90;;;;;;5042763;28;87037;-48
2024/03/28 04:37:51;;;;;;;;;;;12.00;82.90;;;;;;5041883;27;87148;-48
2024/03/28 04:40:17;;;;;;;;;;;12.00;83.00;;;;;;5043929;28;88529;-48
2024/03/28 04:42:50;;;;;;;;;;;12.00;83.00;;;;;;5043908;27;87994;-50
2024/03/28 04:45:18;;;;;;;;;;;12.00;83.10;;;;;;5040871;27;90252;-50
2024/03/28 04:47:47;;;;;;;;;;;12.00;83.00;;;;;;5039651;28;86971;-48
2024/03/28 04:50:13;;;;;;;;;;;12.00;83.00;;;;;;5043087;27;86822;-48
2024/03/28 04:52:39;;;;;;;;;;;12.00;82.90;;;;;;5047678;27;87734;-48
2024/03/28 04:55:05;;;;;;;;;;;12.00;82.90;;;;;;5045542;27;86953;-47
2024/03/28 04:57:31;;;;;;;;;;;12.00;82.80;;;;;;5047781;27;87166;-47
2024/03/28 04:59:56;;;;;;;;;;;12.00;82.80;;;;;;5044974;27;90517;-48
2024/03/28 05:02:22;;;;;;;;;;;12.00;82.80;;;;;;5051069;27;86271;-47
2024/03/28 05:04:47;;;;;;;;;;;12.00;82.80;;;;;;5047246;28;88578;-47
2024/03/28 05:07:13;;;;;;;;;;;12.00;82.80;;;;;;5042303;27;87072;-45
2024/03/28 05:09:39;;;;;;;;;;;12.00;82.70;;;;;;5043742;27;88243;-48
2024/03/28 05:12:05;;;;;;;;;;;12.10;82.80;;;;;;5047390;27;87643;-47
2024/03/28 05:14:30;;;;;;;;;;;12.10;82.70;;;;;;5046828;27;86939;-48
2024/03/28 05:16:56;;;;;;;;;;;12.10;82.70;;;;;;5046544;27;87001;-48
2024/03/28 05:19:21;;;;;;;;;;;12.00;82.60;;;;;;5045029;28;87826;-46
2024/03/28 05:21:47;;;;;;;;;;;12.10;82.70;;;;;;5050992;27;86909;-48
2024/03/28 05:24:13;;;;;;;;;;;12.00;82.60;;;;;;5046827;27;88219;-48
2024/03/28 05:26:38;;;;;;;;;;;12.10;82.70;;;;;;5044091;27;87138;-47
2024/03/28 05:29:04;;;;;;;;;;;12.10;82.70;;;;;;5047384;27;87082;-48
2024/03/28 05:31:30;;;;;;;;;;;12.10;83.30;;;;;;5046840;27;87595;-47
2024/03/28 05:33:56;;;;;;;;;;;12.10;82.70;;;;;;5040773;28;88728;-46
2024/03/28 05:36:24;;;;;;;;;;;12.10;82.70;;;;;;5043797;28;87904;-47
2024/03/28 05:38:50;;;;;;;;;;;12.10;82.70;;;;;;5043253;27;87689;-47
2024/03/28 05:41:15;;;;;;;;;;;12.10;82.70;;;;;;5044192;27;87012;-48
2024/03/28 05:43:41;;;;;;;;;;;12.10;82.70;;;;;;5048625;28;87044;-48
2024/03/28 05:46:06;;;;;;;;;;;12.10;82.70;;;;;;5043711;28;86924;-49
2024/03/28 05:48:32;;;;;;;;;;;12.10;82.90;;;;;;5046517;27;87256;-49
2024/03/28 05:50:57;;;;;;;;;;;12.10;82.90;;;;;;5043009;27;86950;-50
2024/03/28 05:53:23;;;;;;;;;;;12.10;83.00;;;;;;5046468;27;87066;-52
2024/03/28 05:55:49;;;;;;;;;;;12.10;83.60;;;;;;5047376;28;87595;-50
2024/03/28 05:58:14;;;;;;;;;;;12.10;83.70;;;;;;5045897;27;89194;-50
2024/03/28 06:00:40;;;;;;;;;;;12.10;83.70;;;;;;5046350;27;87085;-50
2024/03/28 06:03:05;;;;;;;;;;;12.10;83.60;;;;;;5044650;28;87781;-48
2024/03/28 06:05:31;;;;;;;;;;;12.10;83.40;;;;;;5049016;27;88789;-49
2024/03/28 06:07:57;;;;;;;;;;;12.10;83.30;;;;;;5046295;27;87048;-50
2024/03/28 06:10:22;;;;;;;;;;;12.10;83.30;;;;;;5042571;28;87565;-49
2024/03/28 06:12:48;;;;;;;;;;;12.10;83.30;;;;;;5043582;28;87770;-51
2024/03/28 06:15:14;;;;;;;;;;;12.10;83.20;;;;;;5042840;27;88601;-51
2024/03/28 06:17:39;;;;;;;;;;;12.10;83.20;;;;;;5042547;27;87726;-49
2024/03/28 06:20:05;;;;;;;;;;;12.10;83.30;;;;;;5043097;28;87012;-50
2024/03/28 06:22:30;;;;;;;;;;;12.10;83.20;;;;;;5042831;27;88336;-50
2024/03/28 06:24:56;;;;;;;;;;;12.00;83.10;;;;;;5045970;27;87120;-49
2024/03/28 06:27:22;;;;;;;;;;;12.10;83.10;;;;;;5047577;27;87103;-49
2024/03/28 06:29:50;;;;;;;;;;;12.10;83.20;;;;;;5044269;28;87874;-49
2024/03/28 06:32:25;;;;;;;;;;;12.10;83.10;;;;;;5044028;27;86967;-50
2024/03/28 06:34:57;;;;;;;;;;;12.10;83.10;;;;;;5044504;28;86869;-50
2024/03/28 06:37:24;;;;;;;;;;;12.10;83.10;;;;;;5042057;28;87982;-48
2024/03/28 06:39:49;;;;;;;;;;;12.10;83.10;;;;;;5045276;27;86617;-48
2024/03/28 06:42:16;;;;;;;;;;;12.10;83.00;;;;;;5040592;27;87368;-49
2024/03/28 06:44:45;;;;;;;;;;;12.10;83.20;;;;;;5045432;27;88246;-49
2024/03/28 06:47:11;;;;;;;;;;;12.10;83.10;;;;;;5044974;27;87965;-48
2024/03/28 06:49:36;;;;;;;;;;;12.10;83.10;;;;;;5044422;27;88075;-48
2024/03/28 06:52:02;;;;;;;;;;;12.10;83.10;;;;;;5045626;28;87339;-48
2024/03/28 06:54:27;;;;;;;;;;;12.10;83.10;;;;;;5042633;27;86888;-49
2024/03/28 06:56:53;;;;;;;;;;;12.10;83.30;;;;;;5043595;27;87681;-49
2024/03/28 06:59:19;;;;;;;;;;;12.10;83.00;;;;;;5045344;28;87385;-48
2024/03/28 07:01:44;;;;;;;;;;;12.10;83.00;;;;;;5044726;27;87076;-48
2024/03/28 07:04:10;;;;;;;;;;;12.10;83.00;;;;;;5042939;27;86876;-49
2024/03/28 07:06:35;;;;;;;;;;;12.10;82.90;;;;;;5044064;27;87018;-49
2024/03/28 07:09:01;;;;;;;;;;;12.10;82.90;;;;;;5048277;28;87205;-49
2024/03/28 07:11:27;;;;;;;;;;;12.20;82.90;;;;;;5041161;27;88213;-49
2024/03/28 07:13:53;;;;;;;;;;;12.20;83.00;;;;;;5043990;28;87927;-48
2024/03/28 07:16:19;;;;;;;;;;;12.20;82.90;;;;;;5044604;28;87439;-48
2024/03/28 07:18:45;;;;;;;;;;;12.20;82.90;;;;;;5045090;27;86874;-48
2024/03/28 07:21:11;;;;;;;;;;;12.20;82.80;;;;;;5044823;28;87037;-49
2024/03/28 07:23:40;;;;;;;;;;;12.20;82.80;;;;;;5045281;27;86970;-49
2024/03/28 07:26:07;;;;;;;;;;;12.20;82.70;;;;;;5043215;28;87342;-48
2024/03/28 07:28:32;;;;;;;;;;;12.20;82.70;;;;;;5044332;28;87003;-48
2024/03/28 07:30:58;;;;;;;;;;;12.20;82.70;;;;;;5047507;27;87840;-48
2024/03/28 07:33:24;;;;;;;;;;;12.20;82.70;;;;;;5043364;27;87048;-48
2024/03/28 07:35:50;;;;;;;;;;;12.20;82.60;;;;;;5039288;27;89636;-48
2024/03/28 07:38:16;;;;;;;;;;;12.20;82.70;;;;;;5040960;27;87034;-48
2024/03/28 07:40:46;;;;;;;;;;;12.30;82.70;;;;;;5044111;28;88268;-49
2024/03/28 07:43:12;;;;;;;;;;;12.20;82.60;;;;;;5044751;27;87584;-48
2024/03/28 07:45:38;;;;;;;;;;;12.30;82.50;;;;;;5044456;27;87133;-48
2024/03/28 07:48:03;;;;;;;;;;;12.30;82.60;;;;;;5044348;27;87814;-48
2024/03/28 07:50:29;;;;;;;;;;;12.30;82.60;;;;;;5043806;28;89474;-48
2024/03/28 07:52:54;;;;;;;;;;;12.30;82.70;;;;;;5046849;28;86338;-49
2024/03/28 07:55:20;;;;;;;;;;;12.20;82.70;;;;;;5042982;28;87504;-48
2024/03/28 07:57:47;;;;;;;;;;;12.30;82.80;;;;;;5042519;28;86975;-48
2024/03/28 08:00:13;;;;;;;;;;;12.30;82.70;;;;;;5042820;27;87870;-49
2024/03/28 08:02:38;;;;;;;;;;;12.30;82.70;;;;;;5043871;27;87488;-48
2024/03/28 08:05:05;;;;;;;;;;;12.30;82.60;;;;;;5042728;28;87058;-47
2024/03/28 08:07:30;;;;;;;;;;;12.30;82.60;;;;;;5044884;28;87895;-49
2024/03/28 08:09:56;;;;;;;;;;;12.40;82.70;;;;;;5041415;28;87720;-48
2024/03/28 08:12:23;;;;;;;;;;;12.30;82.70;;;;;;5044835;27;87157;-49
2024/03/28 08:14:49;;;;;;;;;;;12.30;82.60;;;;;;5039895;28;88433;-48
2024/03/28 08:17:16;;;;;;;;;;;12.40;82.70;;;;;;5041338;28;86254;-48
2024/03/28 08:19:42;;;;;;;;;;;12.40;82.70;;;;;;5042562;27;87096;-48
2024/03/28 08:22:10;;;;;;;;;;;12.40;82.80;;;;;;5040238;28;87890;-48
2024/03/28 08:24:36;;;;;;;;;;;12.40;82.80;;;;;;5041867;28;87946;-49
2024/03/28 08:27:02;;;;;;;;;;;12.40;82.80;;;;;;5045116;27;87746;-49
2024/03/28 08:29:29;;;;;;;;;;;12.40;82.90;;;;;;5036190;28;89190;-48
2024/03/28 08:31:55;;;;;;;;;;;12.40;82.90;;;;;;5040283;27;88577;-49
2024/03/28 08:34:21;;;;;;;;;;;12.40;82.90;;;;;;5042707;27;88305;-48
2024/03/28 08:36:47;;;;;;;;;;;12.40;83.50;;;;;;5043022;27;87440;-49
2024/03/28 08:39:13;;;;;;;;;;;12.40;83.00;;;;;;5043363;27;87182;-49
2024/03/28 08:41:40;;;;;;;;;;;12.50;83.10;;;;;;5043843;27;87170;-49
2024/03/28 08:44:08;;;;;;;;;;;12.50;83.10;;;;;;5042460;27;87127;-49
2024/03/28 08:46:33;;;;;;;;;;;12.50;83.10;;;;;;5037718;28;87976;-50
2024/03/28 08:49:00;;;;;;;;;;;12.50;83.10;;;;;;5042438;28;88602;-49
2024/03/28 08:51:26;;;;;;;;;;;12.50;83.20;;;;;;5041936;28;87374;-48
2024/03/28 08:53:52;;;;;;;;;;;12.50;83.30;;;;;;5043675;27;87699;-48
2024/03/28 08:56:20;;;;;;;;;;;12.50;83.20;;;;;;5041376;27;87479;-48
2024/03/28 08:58:45;;;;;;;;;;;12.50;83.40;;;;;;5043494;27;86977;-48
2024/03/28 09:01:13;;;;;;;;;;;12.50;83.40;;;;;;5040051;28;87633;-50
2024/03/28 09:03:38;;;;;;;;;;;12.50;83.30;;;;;;5043628;27;87073;-50
2024/03/28 09:06:09;;;;;;;;;;;12.50;83.40;;;;;;5038851;27;87979;-48
2024/03/28 09:08:35;;;;;;;;;;;12.50;83.40;;;;;;5042923;28;88487;-50
2024/03/28 09:11:01;;;;;;;;;;;12.50;83.40;;;;;;5042658;27;87091;-50
2024/03/28 09:13:26;;;;;;;;;;;12.60;83.50;;;;;;5043128;28;87942;-49
2024/03/28 09:15:52;;;;;;;;;;;12.60;83.50;;;;;;5039721;27;87654;-49
2024/03/28 09:18:17;;;;;;;;;;;12.60;83.50;;;;;;5046700;27;87345;-48
2024/03/28 09:20:45;;;;;;;;;;;12.60;83.50;;;;;;5038156;28;86893;-49
2024/03/28 09:23:11;;;;;;;;;;;12.60;83.50;;;;;;5042471;27;87137;-49
2024/03/28 09:25:36;;;;;;;;;;;12.60;83.50;;;;;;5042724;27;87092;-48
2024/03/28 09:28:02;;;;;;;;;;;12.60;83.50;;;;;;5040849;28;88614;-48
2024/03/28 09:30:28;;;;;;;;;;;12.60;83.50;;;;;;5040144;27;86410;-49
2024/03/28 09:32:54;;;;;;;;;;;12.60;83.70;;;;;;5043410;27;87408;-48
2024/03/28 09:35:20;;;;;;;;;;;12.60;83.70;;;;;;5039683;27;88685;-48
2024/03/28 09:37:46;;;;;;;;;;;12.60;83.70;;;;;;5044148;28;88307;-49
2024/03/28 09:40:13;;;;;;;;;;;12.60;83.70;;;;;;5045008;28;89101;-49
2024/03/28 09:42:40;;;;;;;;;;;12.60;83.70;;;;;;5045761;27;87426;-48
2024/03/28 09:45:06;;;;;;;;;;;12.60;83.90;;;;;;5045285;27;87434;-50
2024/03/28 09:47:33;;;;;;;;;;;12.60;83.80;;;;;;5044002;27;89014;-49
2024/03/28 09:49:59;;;;;;;;;;;12.60;83.90;;;;;;5046213;27;87077;-47
2024/03/28 09:52:25;;;;;;;;;;;12.60;83.90;;;;;;5045045;27;87217;-49
2024/03/28 09:54:51;;;;;;;;;;;12.70;83.90;;;;;;5046514;28;86567;-48
2024/03/28 09:57:16;;;;;;;;;;;12.60;83.90;;;;;;5043914;27;87032;-48
2024/03/28 09:59:42;;;;;;;;;;;12.70;84.00;;;;;;5045111;28;87593;-48
2024/03/28 10:02:20;;;;;;;;;;;12.70;83.80;;;;;;5048006;28;88522;-48
2024/03/28 10:04:54;;;;;;;;;;;12.70;83.70;;;;;;5041870;27;88655;-50
2024/03/28 10:07:20;;;;;;;;;;;12.70;83.60;;;;;;5044190;27;87555;-48
2024/03/28 10:09:46;;;;;;;;;;;12.70;83.70;;;;;;5046307;27;87062;-48
2024/03/28 10:12:12;;;;;;;;;;;12.70;83.70;;;;;;5042933;27;87787;-48
2024/03/28 10:14:39;;;;;;;;;;;12.80;83.70;;;;;;5043225;28;88065;-49
2024/03/28 10:17:05;;;;;;;;;;;12.80;83.70;;;;;;5039231;28;87010;-48
2024/03/28 10:19:33;;;;;;;;;;;12.80;83.60;;;;;;5043184;27;87085;-50
2024/03/28 10:22:06;;;;;;;;;;;12.80;83.60;;;;;;5043360;28;87578;-48
2024/03/28 10:24:33;;;;;;;;;;;12.80;83.60;;;;;;5048060;27;86992;-48
2024/03/28 10:26:59;;;;;;;;;;;12.80;83.50;;;;;;5044627;27;89734;-48
2024/03/28 10:29:29;;;;;;;;;;;12.80;83.50;;;;;;5045438;28;87656;-49
2024/03/28 10:32:03;;;;;;;;;;;12.80;83.50;;;;;;5041424;27;87992;-52
2024/03/28 10:34:28;;;;;;;;;;;12.80;83.40;;;;;;5044302;27;87796;-48
2024/03/28 10:37:02;;;;;;;;;;;12.90;83.50;;;;;;5045054;27;87749;-49
2024/03/28 10:39:28;;;;;;;;;;;12.90;83.40;;;;;;5044826;28;86845;-49
2024/03/28 10:41:53;;;;;;;;;;;12.90;83.10;;;;;;5041131;27;87702;-52
2024/03/28 10:44:19;;;;;;;;;;;12.90;83.10;;;;;;5045365;28;86271;-49
2024/03/28 10:46:45;;;;;;;;;;;12.90;83.00;;;;;;5048275;27;87041;-50
2024/03/28 10:49:11;;;;;;;;;;;13.00;83.00;;;;;;5043836;27;87208;-49
2024/03/28 10:51:40;;;;;;;;;;;13.00;82.90;;;;;;5043606;28;88202;-48
2024/03/28 10:54:21;;;;;;;;;;;13.00;82.80;;;;;;5042571;28;88418;-49
2024/03/28 10:56:46;;;;;;;;;;;13.00;82.80;;;;;;5043148;28;87437;-48
2024/03/28 10:59:13;;;;;;;;;;;13.00;82.60;;;;;;5043675;28;87078;-48
2024/03/28 11:01:39;;;;;;;;;;;13.00;82.50;;;;;;5042469;27;86897;-49
2024/03/28 11:04:05;;;;;;;;;;;13.00;82.70;;;;;;5045828;27;86934;-47
2024/03/28 11:06:31;;;;;;;;;;;13.00;82.60;;;;;;5045960;28;87350;-49
2024/03/28 11:09:01;;;;;;;;;;;13.00;82.60;;;;;;5046337;27;86903;-49
2024/03/28 11:11:27;;;;;;;;;;;13.10;82.60;;;;;;5044671;28;86971;-49
2024/03/28 11:13:52;;;;;;;;;;;13.10;82.40;;;;;;5044456;27;88575;-49
2024/03/28 11:16:23;;;;;;;;;;;13.10;82.40;;;;;;5044229;27;87857;-49
2024/03/28 11:18:48;;;;;;;;;;;13.10;82.50;;;;;;5043454;27;86915;-49
2024/03/28 11:21:24;;;;;;;;;;;13.10;82.40;;;;;;5044165;27;87417;-49
2024/03/28 11:23:50;;;;;;;;;;;13.20;82.60;;;;;;5045581;28;86879;-47
2024/03/28 11:26:19;;;;;;;;;;;13.20;82.30;;;;;;5041490;27;88104;-48
2024/03/28 11:28:45;;;;;;;;;;;13.20;82.30;;;;;;5046775;28;88180;-49
2024/03/28 11:31:13;;;;;;;;;;;13.20;82.40;;;;;;5043707;28;87185;-49
2024/03/28 11:33:39;;;;;;;;;;;13.20;82.30;;;;;;5045247;28;86712;-47
2024/03/28 11:36:08;;;;;;;;;;;13.30;82.30;;;;;;5041657;27;87035;-48
2024/03/28 11:38:34;;;;;;;;;;;13.20;82.30;;;;;;5044673;28;86897;-48
2024/03/28 11:41:00;;;;;;;;;;;13.30;82.20;;;;;;5043868;28;88402;-48
2024/03/28 11:43:31;;;;;;;;;;;13.40;82.20;;;;;;5044269;28;87137;-49
2024/03/28 11:45:59;;;;;;;;;;;13.30;82.10;;;;;;5041660;27;87940;-49
2024/03/28 11:48:25;;;;;;;;;;;13.30;82.10;;;;;;5043014;28;87448;-49
2024/03/28 11:50:52;;;;;;;;;;;13.40;82.00;;;;;;5047086;28;87002;-50
2024/03/28 11:53:17;;;;;;;;;;;13.40;81.80;;;;;;5043604;27;87775;-49
2024/03/28 11:55:44;;;;;;;;;;;13.40;81.70;;;;;;5044057;27;87031;-48
2024/03/28 11:58:15;;;;;;;;;;;13.40;81.70;;;;;;5044286;27;86955;-47
2024/03/28 12:00:40;;;;;;;;;;;13.40;81.60;;;;;;5040893;28;87028;-49
2024/03/28 12:03:06;;;;;;;;;;;13.40;81.70;;;;;;5044574;27;87031;-50
2024/03/28 12:05:32;;;;;;;;;;;13.50;81.60;;;;;;5043877;28;87814;-49
2024/03/28 12:07:57;;;;;;;;;;;13.50;81.50;;;;;;5044299;28;87753;-48
2024/03/28 12:10:23;;;;;;;;;;;13.50;81.50;;;;;;5045195;27;87159;-49
2024/03/28 12:12:49;;;;;;;;;;;13.50;81.50;;;;;;5045866;27;86849;-49
2024/03/28 12:15:15;;;;;;;;;;;13.60;81.40;;;;;;5043152;27;87055;-50
2024/03/28 12:17:41;;;;;;;;;;;13.60;81.60;;;;;;5044787;27;86962;-48
2024/03/28 12:20:08;;;;;;;;;;;13.60;81.60;;;;;;5041406;28;87771;-49
2024/03/28 12:22:34;;;;;;;;;;;13.60;81.40;;;;;;5042806;28;86269;-50
2024/03/28 12:25:00;;;;;;;;;;;13.70;81.40;;;;;;5044318;28;87096;-48
2024/03/28 12:27:27;;;;;;;;;;;13.60;81.30;;;;;;5043176;28;87544;-49
2024/03/28 12:29:52;;;;;;;;;;;13.60;81.30;;;;;;5039736;27;88072;-49
2024/03/28 12:32:19;;;;;;;;;;;13.70;81.20;;;;;;5041510;28;87751;-48
2024/03/28 12:34:51;;;;;;;;;;;13.70;81.00;;;;;;5044736;27;87793;-48
2024/03/28 12:37:17;;;;;;;;;;;13.80;81.10;;;;;;5043311;27;87722;-48
2024/03/28 12:39:42;;;;;;;;;;;13.70;81.00;;;;;;5040168;28;87812;-49
2024/03/28 12:42:08;;;;;;;;;;;13.80;81.10;;;;;;5043053;27;88518;-48
2024/03/28 12:44:33;;;;;;;;;;;13.80;81.00;;;;;;5043681;27;87519;-51
2024/03/28 12:46:59;;;;;;;;;;;13.80;80.90;;;;;;5043240;27;86625;-48
2024/03/28 12:49:24;;;;;;;;;;;13.80;81.00;;;;;;5042258;27;87640;-50
2024/03/28 12:51:50;;;;;;;;;;;13.80;81.00;;;;;;5044760;27;87546;-49
2024/03/28 12:54:16;;;;;;;;;;;13.80;80.90;;;;;;5039605;28;88272;-50
2024/03/28 12:56:41;;;;;;;;;;;13.90;80.80;;;;;;5044011;28;87139;-50
2024/03/28 12:59:07;;;;;;;;;;;13.90;80.90;;;;;;5039059;28;88595;-49
2024/03/28 13:01:32;;;;;;;;;;;13.90;80.80;;;;;;5043905;28;87180;-49
2024/03/28 13:03:58;;;;;;;;;;;13.90;80.60;;;;;;5042661;28;86987;-48
2024/03/28 13:06:23;;;;;;;;;;;13.90;80.60;;;;;;5041535;28;88451;-49
2024/03/28 13:08:49;;;;;;;;;;;13.90;80.40;;;;;;5040925;27;86990;-50
2024/03/28 13:11:15;;;;;;;;;;;13.90;80.20;;;;;;5045269;27;87860;-49
2024/03/28 13:13:41;;;;;;;;;;;14.00;80.10;;;;;;5047044;28;87513;-48
2024/03/28 13:16:07;;;;;;;;;;;14.00;80.20;;;;;;5043403;27;87510;-49
2024/03/28 13:18:32;;;;;;;;;;;14.00;80.20;;;;;;5048249;28;88225;-49
2024/03/28 13:21:00;;;;;;;;;;;14.10;80.00;;;;;;5046777;27;87242;-48
2024/03/28 13:23:26;;;;;;;;;;;14.10;79.90;;;;;;5043566;27;87916;-48
2024/03/28 13:25:51;;;;;;;;;;;14.10;79.70;;;;;;5044415;28;87568;-49
2024/03/28 13:28:17;;;;;;;;;;;14.10;79.70;;;;;;5044765;28;87104;-49
2024/03/28 13:30:46;;;;;;;;;;;14.20;79.60;;;;;;5044228;28;87728;-48
2024/03/28 13:33:11;;;;;;;;;;;14.20;79.50;;;;;;5045680;28;87511;-48
2024/03/28 13:35:37;;;;;;;;;;;14.20;79.60;;;;;;5047787;27;86158;-48
2024/03/28 13:38:03;;;;;;;;;;;14.20;79.60;;;;;;5047525;28;87432;-49
2024/03/28 13:40:29;;;;;;;;;;;14.20;79.80;;;;;;5046657;27;87097;-48
2024/03/28 13:42:54;;;;;;;;;;;14.20;79.60;;;;;;5046128;27;88203;-51
2024/03/28 13:45:21;;;;;;;;;;;14.30;79.70;;;;;;5043737;27;86979;-48
2024/03/28 13:47:46;;;;;;;;;;;14.30;79.50;;;;;;5043021;27;87795;-49
2024/03/28 13:50:12;;;;;;;;;;;14.30;79.60;;;;;;5044970;27;86964;-49
2024/03/28 13:52:37;;;;;;;;;;;14.30;79.80;;;;;;5046453;27;88374;-52
2024/03/28 13:55:03;;;;;;;;;;;14.30;79.50;;;;;;5046179;27;87029;-49
2024/03/28 13:57:29;;;;;;;;;;;14.30;79.60;;;;;;5046093;27;87740;-49
2024/03/28 13:59:54;;;;;;;;;;;14.40;79.60;;;;;;5048442;27;87196;-48
2024/03/28 14:02:20;;;;;;;;;;;14.40;79.60;;;;;;5045154;28;87854;-48
2024/03/28 14:04:45;;;;;;;;;;;14.40;79.50;;;;;;5040243;28;90189;-48
2024/03/28 14:07:11;;;;;;;;;;;14.40;79.70;;;;;;5044267;28;87973;-48
2024/03/28 14:09:36;;;;;;;;;;;14.40;79.50;;;;;;5046502;28;87882;-49
2024/03/28 14:12:02;;;;;;;;;;;14.50;79.70;;;;;;5043907;28;87704;-49
2024/03/28 14:14:27;;;;;;;;;;;14.50;79.70;;;;;;5044912;27;88450;-49
2024/03/28 14:16:53;;;;;;;;;;;14.50;79.80;;;;;;5044375;28;87503;-49